sensor_id;sensor_type;location;lat;lon;timestamp;temperature;humidity
9544;DHT22;30418;51.45933468;7.33152330;2023-12-07T00:01:13;6.50;73.00
9544;DHT22;30418;51.45933468;7.33152330;2023-12-07T00:03:42;6.50;73.00
9544;DHT22;30418;51.45933468;7.33152330;2023-12-07T00:06:11;6.50;73.00
9544;DHT22;30418;51.45933468;7.33152330;2023-12-07T00:08:41;6.50;73.00
9544;DHT22;30418;51.45933468;7.33152330;2023-12-07T00:11:09;6.50;73.00
9544;DHT22;30418;51.45933468;7.33152330;2023-12-07T00:13:38;6.40;72.90
9544;DHT22;30418;51.45933468;7.33152330;2023-12-07T00:16:07;6.40;72.90
9544;DHT22;30418;51.45933468;7.33152330;2023-12-07T00:18:35;6.40;72.90
9544;DHT22;30418;51.45933468;7.33152330;2023-12-07T00:21:04;6.40;72.80
9544;DHT22;30418;51.45933468;7.33152330;2023-12-07T00:23:33;6.50;72.90
9544;DHT22;30418;51.45933468;7.33152330;2023-12-07T00:26:03;6.40;72.80
9544;DHT22;30418;51.45933468;7.33152330;2023-12-07T00:28:31;6.40;72.90
9544;DHT22;30418;51.45933468;7.33152330;2023-12-07T00:31:00;6.40;72.80
9544;DHT22;30418;51.45933468;7.33152330;2023-12-07T00:33:29;6.40;72.90
9544;DHT22;30418;51.45933468;7.33152330;2023-12-07T00:35:57;6.40;72.90
9544;DHT22;30418;51.45933468;7.33152330;2023-12-07T00:38:26;6.40;72.90
9544;DHT22;30418;51.45933468;7.33152330;2023-12-07T00:40:55;6.40;72.90
9544;DHT22;30418;51.45933468;7.33152330;2023-12-07T00:43:25;6.40;72.90
9544;DHT22;30418;51.45933468;7.33152330;2023-12-07T00:45:54;6.40;72.90
9544;DHT22;30418;51.45933468;7.33152330;2023-12-07T00:48:22;6.40;72.90
9544;DHT22;30418;51.45933468;7.33152330;2023-12-07T00:50:51;6.40;72.90
9544;DHT22;30418;51.45933468;7.33152330;2023-12-07T00:53:19;6.40;72.90
9544;DHT22;30418;51.45933468;7.33152330;2023-12-07T00:55:48;6.40;72.90
9544;DHT22;30418;51.45933468;7.33152330;2023-12-07T00:58:16;6.40;72.90
9544;DHT22;30418;51.45933468;7.33152330;2023-12-07T01:00:46;6.40;72.90
9544;DHT22;30418;51.45933468;7.33152330;2023-12-07T01:03:15;6.40;72.90
9544;DHT22;30418;51.45933468;7.33152330;2023-12-07T01:05:43;6.40;73.00
9544;DHT22;30418;51.45933468;7.33152330;2023-12-07T01:08:13;6.40;73.00
9544;DHT22;30418;51.45933468;7.33152330;2023-12-07T01:10:41;6.40;73.10
9544;DHT22;30418;51.45933468;7.33152330;2023-12-07T01:13:11;6.40;73.00
9544;DHT22;30418;51.45933468;7.33152330;2023-12-07T01:15:40;6.40;73.10
9544;DHT22;30418;51.45933468;7.33152330;2023-12-07T01:18:10;6.40;73.10
9544;DHT22;30418;51.45933468;7.33152330;2023-12-07T01:20:39;6.40;73.10
9544;DHT22;30418;51.45933468;7.33152330;2023-12-07T01:23:08;6.40;73.00
9544;DHT22;30418;51.45933468;7.33152330;2023-12-07T01:25:40;6.40;73.10
9544;DHT22;30418;51.45933468;7.33152330;2023-12-07T01:28:09;6.40;73.10
9544;DHT22;30418;51.45933468;7.33152330;2023-12-07T01:30:37;6.40;73.20
9544;DHT22;30418;51.45933468;7.33152330;2023-12-07T01:33:06;6.40;73.20
9544;DHT22;30418;51.45933468;7.33152330;2023-12-07T01:35:36;6.40;73.20
9544;DHT22;30418;51.45933468;7.33152330;2023-12-07T01:38:05;6.40;73.20
9544;DHT22;30418;51.45933468;7.33152330;2023-12-07T01:40:33;6.40;73.10
9544;DHT22;30418;51.45933468;7.33152330;2023-12-07T01:43:02;6.40;73.10
9544;DHT22;30418;51.45933468;7.33152330;2023-12-07T01:45:31;6.40;73.10
9544;DHT22;30418;51.45933468;7.33152330;2023-12-07T01:47:59;6.40;73.10
9544;DHT22;30418;51.45933468;7.33152330;2023-12-07T01:50:28;6.40;73.10
9544;DHT22;30418;51.45933468;7.33152330;2023-12-07T01:53:01;6.40;73.10
9544;DHT22;30418;51.45933468;7.33152330;2023-12-07T01:55:34;6.40;73.10
9544;DHT22;30418;51.45933468;7.33152330;2023-12-07T01:58:02;6.40;73.00
9544;DHT22;30418;51.45933468;7.33152330;2023-12-07T02:00:32;6.40;73.00
9544;DHT22;30418;51.45933468;7.33152330;2023-12-07T02:03:03;6.40;73.10
9544;DHT22;30418;51.45933468;7.33152330;2023-12-07T02:05:33;6.40;73.00
9544;DHT22;30418;51.45933468;7.33152330;2023-12-07T02:08:03;6.40;73.00
9544;DHT22;30418;51.45933468;7.33152330;2023-12-07T02:10:32;6.40;72.90
9544;DHT22;30418;51.45933468;7.33152330;2023-12-07T02:13:01;6.40;72.90
9544;DHT22;30418;51.45933468;7.33152330;2023-12-07T02:15:30;6.40;72.80
9544;DHT22;30418;51.45933468;7.33152330;2023-12-07T02:18:05;6.40;72.80
9544;DHT22;30418;51.45933468;7.33152330;2023-12-07T02:20:44;6.40;73.50
9544;DHT22;30418;51.45933468;7.33152330;2023-12-07T02:23:18;6.40;72.70
9544;DHT22;30418;51.45933468;7.33152330;2023-12-07T02:26:03;6.40;72.70
9544;DHT22;30418;51.45933468;7.33152330;2023-12-07T02:28:33;6.40;72.70
9544;DHT22;30418;51.45933468;7.33152330;2023-12-07T02:31:02;6.40;72.70
9544;DHT22;30418;51.45933468;7.33152330;2023-12-07T02:33:31;6.40;72.70
9544;DHT22;30418;51.45933468;7.33152330;2023-12-07T02:35:59;6.30;72.60
9544;DHT22;30418;51.45933468;7.33152330;2023-12-07T02:38:28;6.30;72.60
9544;DHT22;30418;51.45933468;7.33152330;2023-12-07T02:40:57;6.40;72.70
9544;DHT22;30418;51.45933468;7.33152330;2023-12-07T02:43:27;6.40;72.60
9544;DHT22;30418;51.45933468;7.33152330;2023-12-07T02:45:58;6.30;72.60
9544;DHT22;30418;51.45933468;7.33152330;2023-12-07T02:48:26;6.30;72.60
9544;DHT22;30418;51.45933468;7.33152330;2023-12-07T02:50:56;6.30;72.50
9544;DHT22;30418;51.45933468;7.33152330;2023-12-07T02:53:24;6.30;72.50
9544;DHT22;30418;51.45933468;7.33152330;2023-12-07T02:55:53;6.30;72.50
9544;DHT22;30418;51.45933468;7.33152330;2023-12-07T02:58:21;6.30;72.40
9544;DHT22;30418;51.45933468;7.33152330;2023-12-07T03:00:50;6.30;72.40
9544;DHT22;30418;51.45933468;7.33152330;2023-12-07T03:03:19;6.30;72.40
9544;DHT22;30418;51.45933468;7.33152330;2023-12-07T03:05:48;6.20;72.30
9544;DHT22;30418;51.45933468;7.33152330;2023-12-07T03:08:17;6.20;72.30
9544;DHT22;30418;51.45933468;7.33152330;2023-12-07T03:10:45;6.30;72.40
9544;DHT22;30418;51.45933468;7.33152330;2023-12-07T03:13:14;6.30;72.30
9544;DHT22;30418;51.45933468;7.33152330;2023-12-07T03:15:42;6.30;72.30
9544;DHT22;30418;51.45933468;7.33152330;2023-12-07T03:18:11;6.20;72.20
9544;DHT22;30418;51.45933468;7.33152330;2023-12-07T03:20:42;6.20;72.20
9544;DHT22;30418;51.45933468;7.33152330;2023-12-07T03:23:11;6.20;72.20
9544;DHT22;30418;51.45933468;7.33152330;2023-12-07T03:25:39;6.20;72.30
9544;DHT22;30418;51.45933468;7.33152330;2023-12-07T03:28:08;6.20;72.30
9544;DHT22;30418;51.45933468;7.33152330;2023-12-07T03:30:36;6.20;72.20
9544;DHT22;30418;51.45933468;7.33152330;2023-12-07T03:33:05;6.20;72.20
9544;DHT22;30418;51.45933468;7.33152330;2023-12-07T03:35:34;6.20;72.20
9544;DHT22;30418;51.45933468;7.33152330;2023-12-07T03:38:03;6.10;72.10
9544;DHT22;30418;51.45933468;7.33152330;2023-12-07T03:40:32;6.10;72.00
9544;DHT22;30418;51.45933468;7.33152330;2023-12-07T03:43:00;6.10;72.00
9544;DHT22;30418;51.45933468;7.33152330;2023-12-07T03:45:31;6.10;72.00
9544;DHT22;30418;51.45933468;7.33152330;2023-12-07T03:48:00;6.10;71.90
9544;DHT22;30418;51.45933468;7.33152330;2023-12-07T03:50:28;6.10;72.00
9544;DHT22;30418;51.45933468;7.33152330;2023-12-07T03:52:57;6.10;72.00
9544;DHT22;30418;51.45933468;7.33152330;2023-12-07T03:55:27;6.10;72.00
9544;DHT22;30418;51.45933468;7.33152330;2023-12-07T03:57:55;6.10;71.90
9544;DHT22;30418;51.45933468;7.33152330;2023-12-07T04:00:24;6.10;71.90
9544;DHT22;30418;51.45933468;7.33152330;2023-12-07T04:02:52;6.00;71.80
9544;DHT22;30418;51.45933468;7.33152330;2023-12-07T04:05:21;6.00;71.90
9544;DHT22;30418;51.45933468;7.33152330;2023-12-07T04:07:49;6.00;71.90
9544;DHT22;30418;51.45933468;7.33152330;2023-12-07T04:10:18;6.00;72.00
9544;DHT22;30418;51.45933468;7.33152330;2023-12-07T04:12:48;6.00;72.00
9544;DHT22;30418;51.45933468;7.33152330;2023-12-07T04:15:17;6.00;72.00
9544;DHT22;30418;51.45933468;7.33152330;2023-12-07T04:17:45;6.00;72.10
9544;DHT22;30418;51.45933468;7.33152330;2023-12-07T04:20:14;6.00;72.10
9544;DHT22;30418;51.45933468;7.33152330;2023-12-07T04:22:44;6.00;72.20
9544;DHT22;30418;51.45933468;7.33152330;2023-12-07T04:25:13;6.00;72.20
9544;DHT22;30418;51.45933468;7.33152330;2023-12-07T04:27:42;6.00;72.30
9544;DHT22;30418;51.45933468;7.33152330;2023-12-07T04:30:13;6.00;72.30
9544;DHT22;30418;51.45933468;7.33152330;2023-12-07T04:32:41;6.00;72.20
9544;DHT22;30418;51.45933468;7.33152330;2023-12-07T04:35:10;6.00;72.20
9544;DHT22;30418;51.45933468;7.33152330;2023-12-07T04:37:38;6.00;72.20
9544;DHT22;30418;51.45933468;7.33152330;2023-12-07T04:40:09;6.00;72.30
9544;DHT22;30418;51.45933468;7.33152330;2023-12-07T04:42:38;6.00;72.30
9544;DHT22;30418;51.45933468;7.33152330;2023-12-07T04:45:07;6.10;72.40
9544;DHT22;30418;51.45933468;7.33152330;2023-12-07T04:47:38;6.10;72.40
9544;DHT22;30418;51.45933468;7.33152330;2023-12-07T04:50:07;6.00;72.40
9544;DHT22;30418;51.45933468;7.33152330;2023-12-07T04:52:36;6.00;72.40
9544;DHT22;30418;51.45933468;7.33152330;2023-12-07T04:55:06;6.10;72.50
9544;DHT22;30418;51.45933468;7.33152330;2023-12-07T04:57:35;6.10;72.60
9544;DHT22;30418;51.45933468;7.33152330;2023-12-07T05:00:04;6.10;72.50
9544;DHT22;30418;51.45933468;7.33152330;2023-12-07T05:02:34;6.10;73.40
9544;DHT22;30418;51.45933468;7.33152330;2023-12-07T05:05:04;6.10;72.50
9544;DHT22;30418;51.45933468;7.33152330;2023-12-07T05:07:34;6.10;72.60
9544;DHT22;30418;51.45933468;7.33152330;2023-12-07T05:10:02;6.10;72.60
9544;DHT22;30418;51.45933468;7.33152330;2023-12-07T05:12:31;6.10;72.60
9544;DHT22;30418;51.45933468;7.33152330;2023-12-07T05:15:00;6.10;72.60
9544;DHT22;30418;51.45933468;7.33152330;2023-12-07T05:17:30;6.10;72.60
9544;DHT22;30418;51.45933468;7.33152330;2023-12-07T05:19:58;6.10;72.60
9544;DHT22;30418;51.45933468;7.33152330;2023-12-07T05:22:28;6.10;72.50
9544;DHT22;30418;51.45933468;7.33152330;2023-12-07T05:24:56;6.10;72.50
9544;DHT22;30418;51.45933468;7.33152330;2023-12-07T05:27:25;6.10;72.50
9544;DHT22;30418;51.45933468;7.33152330;2023-12-07T05:29:53;6.20;72.60
9544;DHT22;30418;51.45933468;7.33152330;2023-12-07T05:32:22;6.10;72.50
9544;DHT22;30418;51.45933468;7.33152330;2023-12-07T05:34:51;6.20;72.60
9544;DHT22;30418;51.45933468;7.33152330;2023-12-07T05:37:20;6.10;72.60
9544;DHT22;30418;51.45933468;7.33152330;2023-12-07T05:39:49;6.20;72.60
9544;DHT22;30418;51.45933468;7.33152330;2023-12-07T05:42:18;6.20;72.60
9544;DHT22;30418;51.45933468;7.33152330;2023-12-07T05:44:47;6.20;72.60
9544;DHT22;30418;51.45933468;7.33152330;2023-12-07T05:47:15;6.20;72.60
9544;DHT22;30418;51.45933468;7.33152330;2023-12-07T05:49:44;6.10;72.50
9544;DHT22;30418;51.45933468;7.33152330;2023-12-07T05:52:12;6.20;72.60
9544;DHT22;30418;51.45933468;7.33152330;2023-12-07T05:54:41;6.20;72.60
9544;DHT22;30418;51.45933468;7.33152330;2023-12-07T05:57:11;6.20;72.60
9544;DHT22;30418;51.45933468;7.33152330;2023-12-07T05:59:40;6.20;72.60
9544;DHT22;30418;51.45933468;7.33152330;2023-12-07T06:02:10;6.20;72.60
9544;DHT22;30418;51.45933468;7.33152330;2023-12-07T06:04:38;6.20;72.60
9544;DHT22;30418;51.45933468;7.33152330;2023-12-07T06:07:07;6.20;72.60
9544;DHT22;30418;51.45933468;7.33152330;2023-12-07T06:09:35;6.20;72.50
9544;DHT22;30418;51.45933468;7.33152330;2023-12-07T06:12:04;6.20;72.50
9544;DHT22;30418;51.45933468;7.33152330;2023-12-07T06:14:34;6.20;72.50
9544;DHT22;30418;51.45933468;7.33152330;2023-12-07T06:17:03;6.20;72.40
9544;DHT22;30418;51.45933468;7.33152330;2023-12-07T06:19:31;6.20;73.40
9544;DHT22;30418;51.45933468;7.33152330;2023-12-07T06:22:00;6.20;72.40
9544;DHT22;30418;51.45933468;7.33152330;2023-12-07T06:24:28;6.20;72.30
9544;DHT22;30418;51.45933468;7.33152330;2023-12-07T06:26:57;6.20;72.20
9544;DHT22;30418;51.45933468;7.33152330;2023-12-07T06:29:26;6.20;72.20
9544;DHT22;30418;51.45933468;7.33152330;2023-12-07T06:31:57;6.10;72.10
9544;DHT22;30418;51.45933468;7.33152330;2023-12-07T06:34:27;6.10;72.00
9544;DHT22;30418;51.45933468;7.33152330;2023-12-07T06:36:56;6.20;72.00
9544;DHT22;30418;51.45933468;7.33152330;2023-12-07T06:39:24;6.10;71.80
9544;DHT22;30418;51.45933468;7.33152330;2023-12-07T06:41:53;6.10;71.70
9544;DHT22;30418;51.45933468;7.33152330;2023-12-07T06:44:22;6.10;71.70
9544;DHT22;30418;51.45933468;7.33152330;2023-12-07T06:46:50;6.10;71.60
9544;DHT22;30418;51.45933468;7.33152330;2023-12-07T06:49:20;6.10;71.60
9544;DHT22;30418;51.45933468;7.33152330;2023-12-07T06:51:57;6.10;71.50
9544;DHT22;30418;51.45933468;7.33152330;2023-12-07T06:54:26;6.10;71.40
9544;DHT22;30418;51.45933468;7.33152330;2023-12-07T06:56:54;6.00;71.30
9544;DHT22;30418;51.45933468;7.33152330;2023-12-07T06:59:23;6.00;72.10
9544;DHT22;30418;51.45933468;7.33152330;2023-12-07T07:01:51;6.00;71.30
9544;DHT22;30418;51.45933468;7.33152330;2023-12-07T07:04:21;6.00;71.30
9544;DHT22;30418;51.45933468;7.33152330;2023-12-07T07:06:50;5.90;71.20
9544;DHT22;30418;51.45933468;7.33152330;2023-12-07T07:09:18;5.90;71.20
9544;DHT22;30418;51.45933468;7.33152330;2023-12-07T07:11:48;5.90;71.20
9544;DHT22;30418;51.45933468;7.33152330;2023-12-07T07:14:16;5.90;71.50
9544;DHT22;30418;51.45933468;7.33152330;2023-12-07T07:16:45;5.90;71.30
9544;DHT22;30418;51.45933468;7.33152330;2023-12-07T07:19:14;5.90;71.40
9544;DHT22;30418;51.45933468;7.33152330;2023-12-07T07:21:45;5.90;71.20
9544;DHT22;30418;51.45933468;7.33152330;2023-12-07T07:24:14;5.90;71.20
9544;DHT22;30418;51.45933468;7.33152330;2023-12-07T07:26:43;5.80;71.10
9544;DHT22;30418;51.45933468;7.33152330;2023-12-07T07:29:11;5.80;71.10
9544;DHT22;30418;51.45933468;7.33152330;2023-12-07T07:31:40;5.80;71.10
9544;DHT22;30418;51.45933468;7.33152330;2023-12-07T07:34:08;5.80;71.20
9544;DHT22;30418;51.45933468;7.33152330;2023-12-07T07:36:37;5.80;71.20
9544;DHT22;30418;51.45933468;7.33152330;2023-12-07T07:39:07;5.80;71.30
9544;DHT22;30418;51.45933468;7.33152330;2023-12-07T07:41:35;5.80;71.30
9544;DHT22;30418;51.45933468;7.33152330;2023-12-07T07:44:04;5.80;71.20
9544;DHT22;30418;51.45933468;7.33152330;2023-12-07T07:46:33;5.80;71.10
9544;DHT22;30418;51.45933468;7.33152330;2023-12-07T07:49:01;5.80;71.10
9544;DHT22;30418;51.45933468;7.33152330;2023-12-07T07:51:31;5.70;71.00
9544;DHT22;30418;51.45933468;7.33152330;2023-12-07T07:54:00;5.70;71.00
9544;DHT22;30418;51.45933468;7.33152330;2023-12-07T07:56:29;5.70;71.00
9544;DHT22;30418;51.45933468;7.33152330;2023-12-07T07:58:58;5.70;71.00
9544;DHT22;30418;51.45933468;7.33152330;2023-12-07T08:01:27;5.70;71.00
9544;DHT22;30418;51.45933468;7.33152330;2023-12-07T08:03:56;5.70;71.00
9544;DHT22;30418;51.45933468;7.33152330;2023-12-07T08:06:25;5.70;71.00
9544;DHT22;30418;51.45933468;7.33152330;2023-12-07T08:08:53;5.70;71.00
9544;DHT22;30418;51.45933468;7.33152330;2023-12-07T08:11:21;5.70;71.00
9544;DHT22;30418;51.45933468;7.33152330;2023-12-07T08:13:51;5.70;71.10
9544;DHT22;30418;51.45933468;7.33152330;2023-12-07T08:16:19;5.70;71.20
9544;DHT22;30418;51.45933468;7.33152330;2023-12-07T08:18:48;5.60;71.00
9544;DHT22;30418;51.45933468;7.33152330;2023-12-07T08:21:21;5.60;71.00
9544;DHT22;30418;51.45933468;7.33152330;2023-12-07T08:23:55;5.70;71.20
9544;DHT22;30418;51.45933468;7.33152330;2023-12-07T08:26:24;5.70;71.20
9544;DHT22;30418;51.45933468;7.33152330;2023-12-07T08:28:56;5.70;71.20
9544;DHT22;30418;51.45933468;7.33152330;2023-12-07T08:31:24;5.70;71.30
9544;DHT22;30418;51.45933468;7.33152330;2023-12-07T08:33:53;5.70;71.30
9544;DHT22;30418;51.45933468;7.33152330;2023-12-07T08:36:22;5.70;71.30
9544;DHT22;30418;51.45933468;7.33152330;2023-12-07T08:38:51;5.70;71.30
9544;DHT22;30418;51.45933468;7.33152330;2023-12-07T08:41:19;5.70;71.40
9544;DHT22;30418;51.45933468;7.33152330;2023-12-07T08:43:48;5.70;71.40
9544;DHT22;30418;51.45933468;7.33152330;2023-12-07T08:46:18;5.70;71.50
9544;DHT22;30418;51.45933468;7.33152330;2023-12-07T08:48:46;5.70;71.50
9544;DHT22;30418;51.45933468;7.33152330;2023-12-07T08:51:15;5.70;71.50
9544;DHT22;30418;51.45933468;7.33152330;2023-12-07T08:53:43;5.70;71.70
9544;DHT22;30418;51.45933468;7.33152330;2023-12-07T08:56:17;5.70;71.70
9544;DHT22;30418;51.45933468;7.33152330;2023-12-07T08:58:45;5.80;71.80
9544;DHT22;30418;51.45933468;7.33152330;2023-12-07T09:01:14;5.80;71.80
9544;DHT22;30418;51.45933468;7.33152330;2023-12-07T09:03:57;5.70;71.70
9544;DHT22;30418;51.45933468;7.33152330;2023-12-07T09:06:26;5.80;71.80
9544;DHT22;30418;51.45933468;7.33152330;2023-12-07T09:08:55;5.80;71.80
9544;DHT22;30418;51.45933468;7.33152330;2023-12-07T09:11:23;5.80;71.80
9544;DHT22;30418;51.45933468;7.33152330;2023-12-07T09:13:52;5.80;71.80
9544;DHT22;30418;51.45933468;7.33152330;2023-12-07T09:16:20;5.80;71.80
9544;DHT22;30418;51.45933468;7.33152330;2023-12-07T09:18:49;5.80;71.80
9544;DHT22;30418;51.45933468;7.33152330;2023-12-07T09:21:19;5.90;72.00
9544;DHT22;30418;51.45933468;7.33152330;2023-12-07T09:23:48;5.90;72.10
9544;DHT22;30418;51.45933468;7.33152330;2023-12-07T09:26:17;5.90;72.00
9544;DHT22;30418;51.45933468;7.33152330;2023-12-07T09:28:46;5.90;72.10
9544;DHT22;30418;51.45933468;7.33152330;2023-12-07T09:31:14;5.90;72.20
9544;DHT22;30418;51.45933468;7.33152330;2023-12-07T09:33:44;5.90;72.20
9544;DHT22;30418;51.45933468;7.33152330;2023-12-07T09:36:16;6.00;72.30
9544;DHT22;30418;51.45933468;7.33152330;2023-12-07T09:38:46;6.00;73.20
9544;DHT22;30418;51.45933468;7.33152330;2023-12-07T09:41:16;6.00;72.40
9544;DHT22;30418;51.45933468;7.33152330;2023-12-07T09:43:44;6.00;72.40
9544;DHT22;30418;51.45933468;7.33152330;2023-12-07T09:46:14;6.00;72.40
9544;DHT22;30418;51.45933468;7.33152330;2023-12-07T09:48:43;6.10;72.50
9544;DHT22;30418;51.45933468;7.33152330;2023-12-07T09:51:12;6.10;72.50
9544;DHT22;30418;51.45933468;7.33152330;2023-12-07T09:53:42;6.10;72.50
9544;DHT22;30418;51.45933468;7.33152330;2023-12-07T09:56:13;6.10;72.50
9544;DHT22;30418;51.45933468;7.33152330;2023-12-07T09:58:41;6.20;72.60
9544;DHT22;30418;51.45933468;7.33152330;2023-12-07T10:01:10;6.20;72.60
9544;DHT22;30418;51.45933468;7.33152330;2023-12-07T10:03:41;6.20;72.60
9544;DHT22;30418;51.45933468;7.33152330;2023-12-07T10:06:11;6.20;72.60
9544;DHT22;30418;51.45933468;7.33152330;2023-12-07T10:08:39;6.30;72.60
9544;DHT22;30418;51.45933468;7.33152330;2023-12-07T10:11:09;6.30;72.70
9544;DHT22;30418;51.45933468;7.33152330;2023-12-07T10:13:41;6.30;72.70
9544;DHT22;30418;51.45933468;7.33152330;2023-12-07T10:16:11;6.30;72.60
9544;DHT22;30418;51.45933468;7.33152330;2023-12-07T10:18:42;6.30;72.50
9544;DHT22;30418;51.45933468;7.33152330;2023-12-07T10:21:12;6.40;73.30
9544;DHT22;30418;51.45933468;7.33152330;2023-12-07T10:23:42;6.40;72.50
9544;DHT22;30418;51.45933468;7.33152330;2023-12-07T10:26:16;6.40;72.40
9544;DHT22;30418;51.45933468;7.33152330;2023-12-07T10:28:50;6.40;72.40
9544;DHT22;30418;51.45933468;7.33152330;2023-12-07T10:31:22;6.50;72.40
9544;DHT22;30418;51.45933468;7.33152330;2023-12-07T10:33:52;6.50;72.30
9544;DHT22;30418;51.45933468;7.33152330;2023-12-07T10:36:21;6.50;72.70
9544;DHT22;30418;51.45933468;7.33152330;2023-12-07T10:38:50;6.50;72.20
9544;DHT22;30418;51.45933468;7.33152330;2023-12-07T10:41:20;6.50;72.10
9544;DHT22;30418;51.45933468;7.33152330;2023-12-07T10:43:52;6.50;72.00
9544;DHT22;30418;51.45933468;7.33152330;2023-12-07T10:46:21;6.50;72.00
9544;DHT22;30418;51.45933468;7.33152330;2023-12-07T10:48:53;6.50;71.90
9544;DHT22;30418;51.45933468;7.33152330;2023-12-07T10:51:29;6.60;72.10
9544;DHT22;30418;51.45933468;7.33152330;2023-12-07T10:54:07;6.50;72.00
9544;DHT22;30418;51.45933468;7.33152330;2023-12-07T10:56:39;6.60;72.10
9544;DHT22;30418;51.45933468;7.33152330;2023-12-07T10:59:13;6.60;72.10
9544;DHT22;30418;51.45933468;7.33152330;2023-12-07T11:01:57;6.60;72.00
9544;DHT22;30418;51.45933468;7.33152330;2023-12-07T11:04:27;6.60;71.90
9544;DHT22;30418;51.45933468;7.33152330;2023-12-07T11:07:03;6.70;72.00
9544;DHT22;30418;51.45933468;7.33152330;2023-12-07T11:09:35;6.70;72.00
9544;DHT22;30418;51.45933468;7.33152330;2023-12-07T11:12:13;6.60;71.90
9544;DHT22;30418;51.45933468;7.33152330;2023-12-07T11:14:48;6.70;72.00
9544;DHT22;30418;51.45933468;7.33152330;2023-12-07T11:17:18;6.70;72.00
9544;DHT22;30418;51.45933468;7.33152330;2023-12-07T11:19:49;6.70;72.00
9544;DHT22;30418;51.45933468;7.33152330;2023-12-07T11:22:18;6.70;72.00
9544;DHT22;30418;51.45933468;7.33152330;2023-12-07T11:24:54;6.70;72.00
9544;DHT22;30418;51.45933468;7.33152330;2023-12-07T11:27:26;6.80;72.10
9544;DHT22;30418;51.45933468;7.33152330;2023-12-07T11:30:00;6.80;72.10
9544;DHT22;30418;51.45933468;7.33152330;2023-12-07T11:32:29;6.80;72.00
9544;DHT22;30418;51.45933468;7.33152330;2023-12-07T11:35:02;6.80;72.00
9544;DHT22;30418;51.45933468;7.33152330;2023-12-07T11:38:00;6.80;72.00
9544;DHT22;30418;51.45933468;7.33152330;2023-12-07T11:40:38;6.90;71.80
9544;DHT22;30418;51.45933468;7.33152330;2023-12-07T11:43:16;6.90;71.80
9544;DHT22;30418;51.45933468;7.33152330;2023-12-07T11:45:50;6.90;71.70
9544;DHT22;30418;51.45933468;7.33152330;2023-12-07T11:48:20;6.90;71.60
9544;DHT22;30418;51.45933468;7.33152330;2023-12-07T11:51:00;6.90;71.70
9544;DHT22;30418;51.45933468;7.33152330;2023-12-07T11:53:31;7.00;71.70
9544;DHT22;30418;51.45933468;7.33152330;2023-12-07T11:56:02;7.00;71.70
9544;DHT22;30418;51.45933468;7.33152330;2023-12-07T11:58:34;7.00;71.70
9544;DHT22;30418;51.45933468;7.33152330;2023-12-07T12:01:09;7.00;71.60
9544;DHT22;30418;51.45933468;7.33152330;2023-12-07T12:03:37;7.00;71.40
9544;DHT22;30418;51.45933468;7.33152330;2023-12-07T12:06:07;7.10;71.50
9544;DHT22;30418;51.45933468;7.33152330;2023-12-07T12:08:40;7.00;71.30
9544;DHT22;30418;51.45933468;7.33152330;2023-12-07T12:11:10;7.10;71.30
9544;DHT22;30418;51.45933468;7.33152330;2023-12-07T12:13:38;7.10;71.20
9544;DHT22;30418;51.45933468;7.33152330;2023-12-07T12:16:09;7.10;71.00
9544;DHT22;30418;51.45933468;7.33152330;2023-12-07T12:18:37;7.10;71.00
9544;DHT22;30418;51.45933468;7.33152330;2023-12-07T12:21:07;7.10;71.00
9544;DHT22;30418;51.45933468;7.33152330;2023-12-07T12:23:37;7.10;71.00
9544;DHT22;30418;51.45933468;7.33152330;2023-12-07T12:26:07;7.10;71.00
9544;DHT22;30418;51.45933468;7.33152330;2023-12-07T12:28:38;7.10;70.90
9544;DHT22;30418;51.45933468;7.33152330;2023-12-07T12:31:12;7.10;70.90
9544;DHT22;30418;51.45933468;7.33152330;2023-12-07T12:33:41;7.10;70.90
9544;DHT22;30418;51.45933468;7.33152330;2023-12-07T12:36:09;7.10;70.80
9544;DHT22;30418;51.45933468;7.33152330;2023-12-07T12:38:39;7.10;70.80
9544;DHT22;30418;51.45933468;7.33152330;2023-12-07T12:41:11;7.10;70.80
9544;DHT22;30418;51.45933468;7.33152330;2023-12-07T12:43:40;7.10;71.60
9544;DHT22;30418;51.45933468;7.33152330;2023-12-07T12:46:13;7.10;70.70
9544;DHT22;30418;51.45933468;7.33152330;2023-12-07T12:48:53;7.10;70.70
9544;DHT22;30418;51.45933468;7.33152330;2023-12-07T12:51:24;7.10;70.50
9544;DHT22;30418;51.45933468;7.33152330;2023-12-07T12:53:55;7.10;70.40
9544;DHT22;30418;51.45933468;7.33152330;2023-12-07T12:56:27;7.10;70.40
9544;DHT22;30418;51.45933468;7.33152330;2023-12-07T12:58:56;7.10;70.30
9544;DHT22;30418;51.45933468;7.33152330;2023-12-07T13:01:32;7.10;70.20
9544;DHT22;30418;51.45933468;7.33152330;2023-12-07T13:04:01;7.10;70.10
9544;DHT22;30418;51.45933468;7.33152330;2023-12-07T13:06:30;7.00;70.10
9544;DHT22;30418;51.45933468;7.33152330;2023-12-07T13:08:59;7.00;70.10
9544;DHT22;30418;51.45933468;7.33152330;2023-12-07T13:11:28;7.00;70.10
9544;DHT22;30418;51.45933468;7.33152330;2023-12-07T13:13:56;7.00;70.10
9544;DHT22;30418;51.45933468;7.33152330;2023-12-07T13:16:25;7.00;70.10
9544;DHT22;30418;51.45933468;7.33152330;2023-12-07T13:18:55;7.00;70.10
9544;DHT22;30418;51.45933468;7.33152330;2023-12-07T13:21:24;7.00;70.10
9544;DHT22;30418;51.45933468;7.33152330;2023-12-07T13:23:53;7.00;70.00
9544;DHT22;30418;51.45933468;7.33152330;2023-12-07T13:26:22;7.00;70.00
9544;DHT22;30418;51.45933468;7.33152330;2023-12-07T13:28:51;7.00;70.00
9544;DHT22;30418;51.45933468;7.33152330;2023-12-07T13:31:20;7.00;70.00
9544;DHT22;30418;51.45933468;7.33152330;2023-12-07T13:33:49;7.00;69.90
9544;DHT22;30418;51.45933468;7.33152330;2023-12-07T13:36:25;7.00;70.00
9544;DHT22;30418;51.45933468;7.33152330;2023-12-07T13:38:56;6.90;69.80
9544;DHT22;30418;51.45933468;7.33152330;2023-12-07T13:41:24;6.90;69.70
9544;DHT22;30418;51.45933468;7.33152330;2023-12-07T13:43:52;6.90;69.70
9544;DHT22;30418;51.45933468;7.33152330;2023-12-07T13:46:21;6.90;69.70
9544;DHT22;30418;51.45933468;7.33152330;2023-12-07T13:48:50;6.90;69.70
9544;DHT22;30418;51.45933468;7.33152330;2023-12-07T13:51:19;6.90;69.70
9544;DHT22;30418;51.45933468;7.33152330;2023-12-07T13:53:49;6.90;69.60
9544;DHT22;30418;51.45933468;7.33152330;2023-12-07T13:56:26;6.90;69.50
9544;DHT22;30418;51.45933468;7.33152330;2023-12-07T13:58:55;6.80;69.40
9544;DHT22;30418;51.45933468;7.33152330;2023-12-07T14:01:23;6.80;69.40